Aeroporto :
LOGIN :

Iscrizione | Disclaimer

   EN    FR    IT 

 










Sommario :    VFR   VFR Marginale   IFR   IFR Intensivo   IFR Molto Intensivo
Visibilità : 
Base nubi : 
>= 8 km
>= 3000ft
5 / 8 km
1000 / 3000 ft
1500m / 5 km
500 / 1000 ft
800 / 1500m
200 / 500 ft
< 800m
< 200 ft
Simboli :   Temporali  Nebbia  Neve Forte  Precipitazioni Forti  Vento > 20 kt
SIGMETs :   Varie  Temporali  Ghiacco  Turbolenza  Onda orograficha  Ceneri Vulcaniche






- Altitudine del aeroporto : 49 ft
- Codice IATA : GLZ


EHGR - Gilze-Rijen Airbase

ULTIMO METAR :
  • 272225Z AUTO 20006KT 170V230 9999 NCD 11/09 Q1020 BLU

METARs OBSOLETI :
  • 272155Z AUTO 20005KT 170V230 9999 NCD 11/09 Q1020 BLU
  • 272125Z AUTO 19005KT 170V230 9999 NCD 11/09 Q1020 BLU
  • 272055Z AUTO 19006KT 160V220 9999 NCD 11/09 Q1019 BLU
  • 272025Z AUTO 21004KT 170V240 9999 NCD 13/09 Q1019 BLU
  • 272016Z AUTO 20005KT 170V240 9999 NCD 13/09 Q1019 BLU
  • 271955Z AUTO 20004KT 170V260 9999 NCD 13/10 Q1018 BLU NOSIG

TAF TAF EHGR
Valido dal 27 a 17 ore il 28 a 05 ore UTC


271618Z 2717/2805 23008KT 9999 FEW035 SCT040



MetMap, La meteo Aeronautica in un colpo d'occhio ! - Copyright ORBIFLY Dicembre 2007 - Disclaimer

ORBIFLY MET'MAP TEAM :

Programmazione e sviluppo : Alexandra Zaïnal
Concezione : Baudouin d'Aumeries
Aiuto per la programmazione : Marc-Olivier Méhu
Supporto tecnico e logistico : Manuel Goepfert
Aiuto per la traduzione : Arnaldo La Scala

Contatto : metmap@orbifly.com




FONTI E CREDITI :

   NOAA